createdAt,value
2019-03-09T00:00:48.611Z,6.52
2019-03-09T00:03:23.944Z,6.47
2019-03-09T00:06:00.028Z,6.46
2019-03-09T00:08:35.731Z,6.43
2019-03-09T00:11:10.896Z,6.39
2019-03-09T00:13:46.845Z,6.35
2019-03-09T00:16:23.288Z,6.33
2019-03-09T00:18:58.975Z,6.32
2019-03-09T00:21:35.007Z,6.26
2019-03-09T00:24:31.584Z,6.25
2019-03-09T00:27:30.451Z,6.14
2019-03-09T00:30:18.278Z,6.12
2019-03-09T00:35:25.865Z,6.00
2019-03-09T00:37:59.507Z,5.99
2019-03-09T00:40:32.496Z,6.02
2019-03-09T00:43:07.118Z,6.03
2019-03-09T00:45:40.767Z,6.01
2019-03-09T00:48:23.252Z,5.99
2019-03-09T00:50:57.062Z,6.02
2019-03-09T00:53:30.511Z,6.06
2019-03-09T00:56:05.745Z,6.11
2019-03-09T00:58:40.028Z,6.16
2019-03-09T01:01:14.091Z,6.20
2019-03-09T01:03:47.733Z,6.24
2019-03-09T01:06:21.475Z,6.28
2019-03-09T01:08:56.962Z,6.19
2019-03-09T01:11:31.784Z,6.18
2019-03-09T01:14:06.461Z,6.18
2019-03-09T01:16:40.475Z,6.15
2019-03-09T01:19:14.972Z,6.20
2019-03-09T01:21:50.520Z,6.26
2019-03-09T01:24:24.510Z,6.29
2019-03-09T01:26:59.139Z,6.31
2019-03-09T01:29:32.573Z,6.31
2019-03-09T01:32:06.552Z,6.32
2019-03-09T01:34:40.733Z,6.34
2019-03-09T01:37:14.595Z,6.29
2019-03-09T01:39:48.617Z,6.23
2019-03-09T01:42:22.941Z,6.17
2019-03-09T01:44:56.252Z,6.17
2019-03-09T01:47:30.061Z,6.14
2019-03-09T01:50:04.251Z,6.13
2019-03-09T01:52:37.737Z,6.17
2019-03-09T01:55:11.143Z,6.23
2019-03-09T01:57:45.079Z,6.22
2019-03-09T02:00:20.720Z,6.24
2019-03-09T02:02:54.227Z,6.20
2019-03-09T02:05:27.488Z,6.19
2019-03-09T02:08:01.725Z,6.20
2019-03-09T02:10:35.453Z,6.20
2019-03-09T02:13:09.556Z,6.20
2019-03-09T02:15:44.121Z,6.23
2019-03-09T02:18:18.284Z,6.25
2019-03-09T02:20:52.006Z,6.23
2019-03-09T02:23:25.799Z,6.24
2019-03-09T02:26:00.138Z,6.26
2019-03-09T02:28:33.468Z,6.28
2019-03-09T02:31:07.748Z,6.27
2019-03-09T02:33:41.176Z,6.24
2019-03-09T02:36:14.925Z,6.21
2019-03-09T02:39:06.691Z,6.22
2019-03-09T02:41:39.850Z,6.27
2019-03-09T02:44:13.578Z,6.29
2019-03-09T02:46:47.869Z,6.30
2019-03-09T02:49:21.769Z,6.31
2019-03-09T02:51:56.089Z,6.32
2019-03-09T02:54:29.322Z,6.32
2019-03-09T02:57:03.007Z,6.29
2019-03-09T02:59:36.670Z,6.26
2019-03-09T03:02:31.231Z,6.23
2019-03-09T03:05:05.486Z,6.20
2019-03-09T03:07:39.232Z,6.21
2019-03-09T03:10:13.727Z,6.20
2019-03-09T03:12:47.953Z,6.16
2019-03-09T03:15:37.179Z,6.10
2019-03-09T03:18:11.110Z,6.06
2019-03-09T03:20:44.831Z,6.07
2019-03-09T03:23:19.048Z,6.05
2019-03-09T03:25:53.142Z,6.00
2019-03-09T03:28:26.769Z,5.98
2019-03-09T03:31:00.459Z,5.95
2019-03-09T03:33:34.560Z,5.95
2019-03-09T03:36:08.291Z,5.93
2019-03-09T03:38:42.477Z,5.94
2019-03-09T03:41:16.742Z,5.94
2019-03-09T03:43:50.440Z,5.97
2019-03-09T03:46:24.629Z,5.97
2019-03-09T03:48:58.329Z,6.00
2019-03-09T03:51:32.372Z,6.04
2019-03-09T03:54:06.063Z,6.01
2019-03-09T03:56:39.864Z,6.01
2019-03-09T03:59:14.193Z,6.07
2019-03-09T04:01:47.728Z,6.05
2019-03-09T04:04:21.277Z,6.07
2019-03-09T04:06:55.885Z,6.12
2019-03-09T04:09:30.100Z,6.14
2019-03-09T04:12:03.929Z,6.17
2019-03-09T04:14:37.627Z,6.20
2019-03-09T04:17:10.747Z,6.23
2019-03-09T04:19:44.947Z,6.26
2019-03-09T04:22:19.771Z,6.30
2019-03-09T04:24:53.783Z,6.33
2019-03-09T04:27:27.996Z,6.34
2019-03-09T04:30:02.250Z,6.36
2019-03-09T04:32:36.301Z,6.37
2019-03-09T04:35:09.997Z,6.33
2019-03-09T04:37:43.566Z,6.32
2019-03-09T04:40:16.679Z,6.31
2019-03-09T04:42:50.215Z,6.31
2019-03-09T04:45:24.810Z,6.30
2019-03-09T04:47:58.525Z,6.30
2019-03-09T04:50:32.666Z,6.33
2019-03-09T04:53:06.494Z,6.36
2019-03-09T04:55:40.709Z,6.41
2019-03-09T04:58:14.904Z,6.42
2019-03-09T05:00:49.139Z,6.44
2019-03-09T05:03:23.254Z,6.44
2019-03-09T05:05:56.237Z,6.45
2019-03-09T05:09:00.541Z,6.49
2019-03-09T05:11:35.377Z,6.51
2019-03-09T05:14:22.193Z,6.54
2019-03-09T05:16:55.904Z,6.55
2019-03-09T05:19:30.100Z,6.57
2019-03-09T05:22:03.915Z,6.57
2019-03-09T05:24:37.586Z,6.55
2019-03-09T05:27:12.550Z,6.53
2019-03-09T05:29:45.896Z,6.50
2019-03-09T05:32:20.204Z,6.51
2019-03-09T05:34:53.908Z,6.52
2019-03-09T05:37:28.162Z,6.53
2019-03-09T05:40:02.263Z,6.52
2019-03-09T05:42:36.055Z,6.52
2019-03-09T05:45:09.398Z,6.53
2019-03-09T05:47:43.304Z,6.54
2019-03-09T05:50:17.630Z,6.56
2019-03-09T05:52:59.140Z,6.62
2019-03-09T05:55:32.790Z,6.63
2019-03-09T05:58:07.010Z,6.68
2019-03-09T06:00:41.607Z,6.71
2019-03-09T06:03:15.806Z,6.73
2019-03-09T06:06:08.783Z,6.75
2019-03-09T06:08:41.317Z,6.74
2019-03-09T06:11:15.565Z,6.77
2019-03-09T06:13:49.486Z,6.80
2019-03-09T06:16:23.833Z,6.84
2019-03-09T06:18:57.689Z,6.89
2019-03-09T06:21:31.812Z,6.92
2019-03-09T06:24:05.451Z,6.94
2019-03-09T06:26:39.153Z,6.96
2019-03-09T06:29:13.650Z,6.99
2019-03-09T06:32:27.238Z,6.99
2019-03-09T06:35:01.455Z,7.00
2019-03-09T06:37:34.317Z,6.98
2019-03-09T06:40:08.687Z,6.99
2019-03-09T06:42:50.555Z,6.99
2019-03-09T06:45:24.150Z,7.00
2019-03-09T06:47:58.142Z,7.01
2019-03-09T06:50:32.378Z,7.00
2019-03-09T06:53:05.572Z,7.05
2019-03-09T06:55:39.792Z,7.06
2019-03-09T06:58:14.007Z,7.11
2019-03-09T07:00:49.498Z,7.14
2019-03-09T07:03:24.056Z,7.14
2019-03-09T07:05:57.079Z,7.17
2019-03-09T07:08:35.800Z,7.21
2019-03-09T07:11:08.531Z,7.28
2019-03-09T07:13:41.967Z,7.38
2019-03-09T07:16:14.760Z,7.48
2019-03-09T07:18:49.250Z,7.61
2019-03-09T07:21:21.757Z,7.70
2019-03-09T07:24:02.101Z,7.81
2019-03-09T07:26:40.830Z,7.87
2019-03-09T07:29:13.273Z,7.96
2019-03-09T07:31:53.830Z,8.04
2019-03-09T07:34:30.711Z,8.12
2019-03-09T07:37:03.387Z,8.19
2019-03-09T07:39:37.428Z,8.24
2019-03-09T07:42:09.935Z,8.34
2019-03-09T07:44:43.404Z,8.41
2019-03-09T07:47:15.914Z,8.50
2019-03-09T07:49:50.309Z,8.61
2019-03-09T07:52:39.874Z,8.69
2019-03-09T07:55:15.444Z,8.75
2019-03-09T07:57:47.826Z,8.82
2019-03-09T08:00:21.590Z,8.90
2019-03-09T08:02:54.771Z,8.97
2019-03-09T08:05:27.384Z,9.03
2019-03-09T08:07:59.740Z,9.09
2019-03-09T08:10:32.463Z,9.16
2019-03-09T08:13:05.473Z,9.24
2019-03-09T08:15:38.151Z,9.26
2019-03-09T08:18:10.919Z,9.31
2019-03-09T08:20:43.659Z,9.37
2019-03-09T08:23:15.907Z,9.42
2019-03-09T08:25:48.088Z,9.47
2019-03-09T08:28:21.145Z,9.55
2019-03-09T08:30:54.019Z,9.61
2019-03-09T08:33:26.139Z,9.67
2019-03-09T08:35:58.895Z,9.70
2019-03-09T08:38:32.601Z,9.74
2019-03-09T08:41:06.309Z,9.82
2019-03-09T08:43:39.197Z,9.85
2019-03-09T08:46:11.944Z,9.95
2019-03-09T08:48:45.742Z,10.01
2019-03-09T08:51:19.503Z,10.10
2019-03-09T08:53:52.749Z,10.21
2019-03-09T08:56:25.716Z,10.31
2019-03-09T08:58:58.141Z,10.43
2019-03-09T09:01:31.454Z,10.54
2019-03-09T09:04:04.814Z,10.62
2019-03-09T09:06:37.278Z,10.67
2019-03-09T09:09:10.001Z,10.71
2019-03-09T09:11:42.982Z,10.73
2019-03-09T09:14:16.393Z,10.82
2019-03-09T09:16:49.237Z,10.89
2019-03-09T09:19:21.574Z,10.93
2019-03-09T09:21:54.037Z,10.94
2019-03-09T09:24:26.677Z,10.95
2019-03-09T09:26:59.282Z,10.96
2019-03-09T09:29:32.798Z,10.97
2019-03-09T09:32:05.991Z,11.02
2019-03-09T09:34:39.256Z,11.07
2019-03-09T09:37:11.857Z,11.13
2019-03-09T09:39:44.281Z,11.20
2019-03-09T09:42:18.073Z,11.26
2019-03-09T09:44:51.579Z,11.34
2019-03-09T09:47:23.884Z,11.31
2019-03-09T09:49:57.009Z,11.32
2019-03-09T09:52:29.580Z,11.28
2019-03-09T09:55:02.136Z,11.27
2019-03-09T09:57:34.506Z,11.22
2019-03-09T10:00:09.705Z,11.23
2019-03-09T10:02:42.389Z,11.17
2019-03-09T10:05:15.358Z,11.09
2019-03-09T10:07:48.438Z,10.99
2019-03-09T10:10:21.480Z,10.73
2019-03-09T10:12:55.869Z,10.63
2019-03-09T10:15:29.236Z,10.44
2019-03-09T10:18:04.559Z,10.28
2019-03-09T10:20:37.581Z,10.05
2019-03-09T10:23:11.506Z,9.76
2019-03-09T10:25:44.586Z,9.42
2019-03-09T10:28:17.636Z,9.00
2019-03-09T10:30:50.463Z,8.71
2019-03-09T10:33:24.292Z,8.50
2019-03-09T10:35:58.227Z,8.26
2019-03-09T10:38:31.627Z,8.16
2019-03-09T10:41:04.587Z,8.13
2019-03-09T10:43:46.821Z,8.02
2019-03-09T10:46:20.100Z,7.97
2019-03-09T10:48:53.841Z,7.91
2019-03-09T10:51:26.392Z,7.91
2019-03-09T10:54:00.288Z,7.97
2019-03-09T10:56:32.850Z,7.94
2019-03-09T10:59:05.877Z,7.99
2019-03-09T11:01:38.357Z,8.05
2019-03-09T11:04:12.850Z,8.08
2019-03-09T11:06:46.387Z,8.10
2019-03-09T11:09:19.754Z,8.15
2019-03-09T11:11:53.494Z,8.17
2019-03-09T11:14:27.432Z,8.13
2019-03-09T11:17:01.535Z,8.12
2019-03-09T11:19:34.569Z,8.08
2019-03-09T11:22:07.987Z,8.06
2019-03-09T11:24:39.845Z,8.05
2019-03-09T11:27:12.102Z,8.09
2019-03-09T11:29:44.446Z,8.09
2019-03-09T11:32:17.641Z,8.12
2019-03-09T11:34:50.307Z,8.18
2019-03-09T11:37:23.500Z,8.25
2019-03-09T11:39:57.646Z,8.29
2019-03-09T11:42:30.373Z,8.33
2019-03-09T11:45:03.259Z,8.37
2019-03-09T11:47:36.335Z,8.44
2019-03-09T11:50:09.939Z,8.49
2019-03-09T11:52:42.282Z,8.51
2019-03-09T11:55:14.785Z,8.57
2019-03-09T11:57:47.294Z,8.65
2019-03-09T12:00:24.777Z,8.75
2019-03-09T12:02:57.638Z,8.83
2019-03-09T12:05:32.432Z,8.92
2019-03-09T12:08:06.226Z,8.89
2019-03-09T12:10:40.303Z,8.88
2019-03-09T12:13:14.015Z,8.95
2019-03-09T12:15:47.622Z,8.95
2019-03-09T12:18:21.243Z,8.98
2019-03-09T12:20:54.799Z,9.01
2019-03-09T12:23:29.158Z,9.01
2019-03-09T12:26:03.139Z,9.01
2019-03-09T12:28:36.942Z,9.05
2019-03-09T12:31:10.860Z,9.11
2019-03-09T12:33:44.901Z,9.21
2019-03-09T12:36:18.662Z,9.32
2019-03-09T12:38:51.906Z,9.79
2019-03-09T12:41:25.785Z,9.85
2019-03-09T12:43:59.292Z,9.99
2019-03-09T12:46:33.554Z,10.61
2019-03-09T12:49:07.720Z,11.18
2019-03-09T12:51:41.792Z,11.86
2019-03-09T12:54:15.599Z,12.26
2019-03-09T12:56:49.480Z,12.76
2019-03-09T12:59:24.194Z,13.25
2019-03-09T13:01:57.435Z,13.41
2019-03-09T13:04:31.733Z,13.32
2019-03-09T13:07:04.925Z,13.73
2019-03-09T13:09:38.211Z,13.96
2019-03-09T13:12:12.471Z,14.24
2019-03-09T13:14:46.559Z,13.69
2019-03-09T13:17:20.797Z,13.28
2019-03-09T13:19:54.867Z,13.61
2019-03-09T13:22:29.015Z,13.95
2019-03-09T13:25:02.739Z,13.79
2019-03-09T13:27:36.824Z,13.89
2019-03-09T13:30:11.252Z,14.28
2019-03-09T13:32:45.303Z,14.37
2019-03-09T13:35:18.842Z,14.61
2019-03-09T13:37:52.959Z,14.40
2019-03-09T13:40:27.081Z,14.13
2019-03-09T13:43:01.212Z,14.06
2019-03-09T13:45:35.180Z,14.10
2019-03-09T13:48:09.316Z,14.20
2019-03-09T13:50:43.233Z,13.95
2019-03-09T13:53:17.442Z,14.02
2019-03-09T13:55:52.206Z,14.13
2019-03-09T13:58:26.103Z,14.17
2019-03-09T14:01:00.294Z,14.30
2019-03-09T14:03:34.390Z,14.14
2019-03-09T14:06:08.699Z,14.06
2019-03-09T14:08:42.618Z,14.23
2019-03-09T14:11:16.695Z,14.31
2019-03-09T14:13:50.493Z,14.66
2019-03-09T14:16:24.668Z,14.44
2019-03-09T14:18:58.658Z,14.64
2019-03-09T14:21:32.041Z,14.46
2019-03-09T14:24:05.887Z,14.32
2019-03-09T14:26:40.121Z,14.02
2019-03-09T14:29:14.512Z,13.72
2019-03-09T14:31:48.632Z,13.32
2019-03-09T14:34:22.547Z,13.03
2019-03-09T14:36:56.657Z,12.75
2019-03-09T14:39:30.384Z,12.73
2019-03-09T14:42:04.473Z,12.57
2019-03-09T14:44:38.137Z,12.38
2019-03-09T14:47:12.901Z,12.31
2019-03-09T14:49:50.394Z,12.33
2019-03-09T14:52:24.229Z,12.31
2019-03-09T14:54:58.446Z,12.32
2019-03-09T14:57:32.630Z,12.32
2019-03-09T15:00:06.895Z,12.12
2019-03-09T15:02:40.476Z,12.05
2019-03-09T15:05:13.909Z,12.04
2019-03-09T15:07:48.072Z,12.11
2019-03-09T15:10:21.876Z,12.01
2019-03-09T15:12:55.401Z,11.97
2019-03-09T15:15:28.942Z,11.90
2019-03-09T15:18:02.199Z,11.86
2019-03-09T15:20:36.175Z,11.82
2019-03-09T15:23:09.769Z,11.78
2019-03-09T15:25:43.725Z,11.75
2019-03-09T15:28:17.318Z,11.75
2019-03-09T15:30:50.767Z,11.82
2019-03-09T15:33:24.336Z,11.95
2019-03-09T15:35:58.024Z,12.01
2019-03-09T15:38:31.737Z,12.00
2019-03-09T15:41:05.531Z,12.00
2019-03-09T15:43:39.348Z,11.94
2019-03-09T15:46:13.179Z,11.89
2019-03-09T15:48:45.601Z,11.89
2019-03-09T15:51:19.477Z,11.83
2019-03-09T15:53:52.325Z,11.78
2019-03-09T15:56:25.849Z,11.74
2019-03-09T15:58:58.348Z,11.69
2019-03-09T16:01:31.761Z,11.65
2019-03-09T16:04:05.458Z,11.56
2019-03-09T16:06:38.301Z,11.59
2019-03-09T16:09:11.462Z,11.50
2019-03-09T16:11:44.966Z,11.54
2019-03-09T16:14:18.178Z,11.45
2019-03-09T16:16:52.063Z,11.44
2019-03-09T16:19:24.900Z,11.35
2019-03-09T16:21:57.407Z,11.27
2019-03-09T16:24:30.195Z,11.17
2019-03-09T16:27:03.028Z,11.08
2019-03-09T16:29:36.383Z,10.77
2019-03-09T16:32:08.738Z,10.66
2019-03-09T16:34:41.768Z,10.17
2019-03-09T16:37:14.459Z,9.14
2019-03-09T16:39:46.747Z,8.87
2019-03-09T16:42:20.693Z,8.49
2019-03-09T16:44:53.085Z,8.24
2019-03-09T16:47:26.855Z,8.11
2019-03-09T16:50:00.233Z,8.01
2019-03-09T16:52:32.920Z,7.97
2019-03-09T16:55:05.616Z,8.04
2019-03-09T16:57:38.402Z,8.01
2019-03-09T17:00:14.673Z,7.99
2019-03-09T17:02:47.511Z,7.96
2019-03-09T17:05:20.036Z,7.97
2019-03-09T17:07:53.381Z,8.02
2019-03-09T17:10:26.691Z,8.06
2019-03-09T17:12:59.399Z,8.05
2019-03-09T17:15:33.165Z,8.02
2019-03-09T17:18:06.849Z,8.02
2019-03-09T17:20:40.924Z,8.03
2019-03-09T17:23:15.110Z,8.04
2019-03-09T17:25:49.372Z,7.99
2019-03-09T17:28:23.300Z,7.94
2019-03-09T17:30:57.066Z,7.98
2019-03-09T17:33:30.654Z,7.94
2019-03-09T17:36:04.482Z,7.91
2019-03-09T17:38:38.864Z,7.91
2019-03-09T17:41:13.106Z,7.93
2019-03-09T17:43:47.173Z,8.03
2019-03-09T17:46:21.229Z,8.08
2019-03-09T17:48:55.288Z,8.02
2019-03-09T17:51:29.308Z,7.99
2019-03-09T17:54:03.291Z,7.85
2019-03-09T17:56:37.324Z,7.74
2019-03-09T17:59:10.828Z,7.68
2019-03-09T18:01:44.838Z,7.65
2019-03-09T18:04:18.927Z,7.59
2019-03-09T18:06:53.308Z,7.64
2019-03-09T18:09:26.467Z,7.61
2019-03-09T18:12:00.168Z,7.60
2019-03-09T18:14:34.170Z,7.60
2019-03-09T18:17:07.250Z,7.59
2019-03-09T18:19:40.194Z,7.59
2019-03-09T18:22:12.546Z,7.60
2019-03-09T18:24:45.283Z,7.58
2019-03-09T18:27:17.558Z,7.59
2019-03-09T18:29:50.527Z,7.59
2019-03-09T18:32:22.782Z,7.54
2019-03-09T18:34:55.537Z,7.50
2019-03-09T18:37:28.901Z,7.47
2019-03-09T18:40:03.124Z,7.54
2019-03-09T18:42:36.627Z,7.55
2019-03-09T18:45:12.463Z,7.56
2019-03-09T18:47:45.047Z,7.57
2019-03-09T18:50:18.374Z,7.57
2019-03-09T18:52:51.799Z,7.55
2019-03-09T18:55:24.541Z,7.60
2019-03-09T18:57:57.781Z,7.63
2019-03-09T19:00:30.440Z,7.62
2019-03-09T19:03:02.663Z,7.58
2019-03-09T19:05:36.662Z,7.55
2019-03-09T19:08:08.913Z,7.54
2019-03-09T19:10:41.728Z,7.51
2019-03-09T19:13:14.866Z,7.47
2019-03-09T19:15:48.106Z,7.43
2019-03-09T19:18:21.739Z,7.42
2019-03-09T19:20:54.326Z,7.42
2019-03-09T19:23:27.586Z,7.40
2019-03-09T19:26:01.110Z,7.45
2019-03-09T19:28:33.574Z,7.50
2019-03-09T19:31:06.692Z,7.51
2019-03-09T19:33:39.275Z,7.48
2019-03-09T19:36:12.445Z,7.45
2019-03-09T19:38:44.878Z,7.41
2019-03-09T19:41:16.731Z,7.43
2019-03-09T19:43:50.283Z,7.44
2019-03-09T19:46:23.025Z,7.47
2019-03-09T19:48:56.191Z,7.50
2019-03-09T19:51:35.530Z,7.51
2019-03-09T19:54:08.649Z,7.49
2019-03-09T19:56:41.393Z,7.49
2019-03-09T19:59:14.289Z,7.51
2019-03-09T20:01:47.577Z,7.50
2019-03-09T20:04:20.834Z,7.46
2019-03-09T20:06:52.992Z,7.47
2019-03-09T20:09:27.527Z,7.51
2019-03-09T20:12:01.168Z,7.52
2019-03-09T20:14:34.308Z,7.52
2019-03-09T20:17:07.592Z,7.49
2019-03-09T20:19:40.276Z,7.48
2019-03-09T20:22:14.639Z,7.51
2019-03-09T20:24:47.355Z,7.50
2019-03-09T20:27:19.796Z,7.49
2019-03-09T20:29:52.721Z,7.49
2019-03-09T20:32:25.077Z,7.49
2019-03-09T20:34:57.598Z,7.52
2019-03-09T20:37:29.557Z,7.55
2019-03-09T20:40:02.832Z,7.53
2019-03-09T20:42:35.171Z,7.52
2019-03-09T20:45:09.487Z,7.57
2019-03-09T20:47:45.873Z,7.57
2019-03-09T20:50:18.039Z,7.56
2019-03-09T20:52:52.524Z,7.56
2019-03-09T20:55:25.852Z,7.56
2019-03-09T20:57:58.769Z,7.53
2019-03-09T21:00:31.248Z,7.54
2019-03-09T21:03:03.816Z,7.53
2019-03-09T21:05:37.247Z,7.52
2019-03-09T21:08:09.793Z,7.52
2019-03-09T21:10:43.047Z,7.51
2019-03-09T21:13:15.497Z,7.53
2019-03-09T21:15:48.091Z,7.52
2019-03-09T21:18:22.410Z,7.50
2019-03-09T21:20:56.216Z,7.50
2019-03-09T21:23:29.034Z,7.47
2019-03-09T21:26:01.476Z,7.45
2019-03-09T21:28:33.927Z,7.41
2019-03-09T21:31:07.352Z,7.45
2019-03-09T21:33:39.844Z,7.49
2019-03-09T21:36:13.259Z,7.45
2019-03-09T21:38:46.452Z,7.48
2019-03-09T21:41:18.422Z,7.48
2019-03-09T21:43:52.611Z,7.50
2019-03-09T21:46:25.423Z,7.46
2019-03-09T21:48:59.096Z,7.44
2019-03-09T21:51:36.559Z,7.46
2019-03-09T21:54:09.186Z,7.43
2019-03-09T21:56:42.165Z,7.40
2019-03-09T21:59:14.597Z,7.36
2019-03-09T22:01:47.773Z,7.39
2019-03-09T22:04:20.623Z,7.40
2019-03-09T22:06:52.705Z,7.44
2019-03-09T22:09:25.112Z,7.39
2019-03-09T22:11:57.893Z,7.30
2019-03-09T22:14:30.987Z,7.29
2019-03-09T22:17:04.851Z,7.29
2019-03-09T22:19:38.359Z,7.26
2019-03-09T22:22:12.455Z,7.29
2019-03-09T22:24:46.121Z,7.33
2019-03-09T22:27:20.307Z,7.44
2019-03-09T22:29:54.435Z,7.50
2019-03-09T22:32:29.079Z,7.55
2019-03-09T22:35:03.443Z,7.58
2019-03-09T22:37:37.464Z,7.63
2019-03-09T22:40:10.896Z,7.62
2019-03-09T22:42:44.888Z,7.66
2019-03-09T22:45:17.199Z,7.64
2019-03-09T22:47:50.946Z,7.59
2019-03-09T22:50:23.546Z,7.61
2019-03-09T22:52:58.235Z,7.58
2019-03-09T22:55:31.818Z,7.61
2019-03-09T22:58:05.255Z,7.60
2019-03-09T23:00:39.865Z,7.58
2019-03-09T23:03:12.542Z,7.58
2019-03-09T23:05:46.208Z,7.55
2019-03-09T23:08:19.393Z,7.55
2019-03-09T23:11:02.564Z,7.50
2019-03-09T23:13:35.988Z,7.50
2019-03-09T23:16:10.090Z,7.52
2019-03-09T23:18:44.093Z,7.40
2019-03-09T23:21:18.112Z,7.23
2019-03-09T23:23:52.329Z,7.19
2019-03-09T23:26:26.255Z,7.23
2019-03-09T23:29:00.144Z,7.18
2019-03-09T23:31:33.973Z,7.19
2019-03-09T23:34:07.367Z,7.24
2019-03-09T23:36:42.371Z,7.26
2019-03-09T23:39:16.472Z,7.26
2019-03-09T23:41:50.965Z,7.26
2019-03-09T23:44:24.971Z,7.30
2019-03-09T23:46:58.471Z,7.25
2019-03-09T23:49:33.973Z,7.22
2019-03-09T23:52:08.006Z,7.25
2019-03-09T23:54:42.237Z,7.25
2019-03-09T23:57:16.627Z,7.24
2019-03-09T23:59:52.673Z,7.24
